Terminal Aerodrome Forecast
Issued by NWS Upton, NY

Home | Current Version | Previous Version | Text Only | Print | Product List | Glossary On
Versions: 1 2 3 4 5 6 7 8 9 10 11 12 13 14 15 16 17 18 19 20 21 22 23 24 25 26 27 28 29 30 31 32 33 34 35 36 37 38 39 40 41 42
000
FTUS41 KOKX 160300 AAC
TAFEWR
TAF AMD
KEWR 160323Z 1603/1706 32016G23KT 4SM -RASN BR BKN015
     FM160400 33022G30KT P6SM -RASN SCT015 OVC035
      TEMPO 1604/1607 4SM -RASN BKN015
     FM160700 33016G25KT P6SM FEW030 SCT150
     FM161400 35013G20KT P6SM FEW040
     FM162100 36012KT P6SM SKC
     FM170200 01008KT P6SM SKC=

USA.gov is the U.S. government's official web portal to all federal, state and local government web resources and services.